Terminal Aerodrome Forecast
Issued by NWS

Home | Current Version | Previous Version | Text Only | Print | Product List | Glossary On
Versions: 1 2 3 4 5 6 7 8 9 10 11 12 13 14 15 16 17 18 19 20 21 22 23
000
FTUS46 KPDT 231720
TAFPSC
TAF
KPSC 231720Z 2318/2418 VRB05KT P6SM BKN090
     FM240600 25008KT P6SM VCSH BKN050
     FM241200 25010KT P6SM -RA OVC030=

USA.gov is the U.S. government's official web portal to all federal, state and local government web resources and services.